sensor_id;sensor_type;location;lat;lon;timestamp;pressure;altitude;pressure_sealevel;temperature;humidity
9784;BME280;4931;44.874;-1.092;2022-10-31T00:02:31;101569.03;;;15.47;100.00
9784;BME280;4931;44.874;-1.092;2022-10-31T00:07:16;101584.09;;;15.35;100.00
9784;BME280;4931;44.874;-1.092;2022-10-31T00:12:02;101577.66;;;15.40;100.00
9784;BME280;4931;44.874;-1.092;2022-10-31T00:16:49;101577.97;;;15.63;100.00
9784;BME280;4931;44.874;-1.092;2022-10-31T00:21:35;101550.69;;;15.56;100.00
9784;BME280;4931;44.874;-1.092;2022-10-31T00:26:20;101547.41;;;15.54;100.00
9784;BME280;4931;44.874;-1.092;2022-10-31T00:31:06;101557.03;;;15.56;100.00
9784;BME280;4931;44.874;-1.092;2022-10-31T00:35:55;101545.25;;;15.46;100.00
9784;BME280;4931;44.874;-1.092;2022-10-31T00:40:40;101541.63;;;15.26;100.00
9784;BME280;4931;44.874;-1.092;2022-10-31T00:45:25;101525.84;;;15.26;100.00
9784;BME280;4931;44.874;-1.092;2022-10-31T00:50:10;101490.63;;;15.13;100.00
9784;BME280;4931;44.874;-1.092;2022-10-31T00:54:58;101475.13;;;14.88;100.00
9784;BME280;4931;44.874;-1.092;2022-10-31T00:59:43;101469.50;;;14.98;100.00
9784;BME280;4931;44.874;-1.092;2022-10-31T01:04:28;101463.59;;;14.81;100.00
9784;BME280;4931;44.874;-1.092;2022-10-31T01:09:14;101450.34;;;14.83;100.00
9784;BME280;4931;44.874;-1.092;2022-10-31T01:14:01;101436.84;;;14.76;100.00
9784;BME280;4931;44.874;-1.092;2022-10-31T01:18:47;101409.47;;;14.80;100.00
9784;BME280;4931;44.874;-1.092;2022-10-31T01:23:32;101398.44;;;14.80;100.00
9784;BME280;4931;44.874;-1.092;2022-10-31T01:28:17;101388.22;;;14.80;100.00
9784;BME280;4931;44.874;-1.092;2022-10-31T01:33:05;101384.06;;;14.83;100.00
9784;BME280;4931;44.874;-1.092;2022-10-31T01:37:50;101393.03;;;14.69;100.00
9784;BME280;4931;44.874;-1.092;2022-10-31T01:42:35;101412.66;;;14.63;100.00
9784;BME280;4931;44.874;-1.092;2022-10-31T01:47:33;101383.38;;;14.67;100.00
9784;BME280;4931;44.874;-1.092;2022-10-31T01:52:25;101377.38;;;14.59;100.00
9784;BME280;4931;44.874;-1.092;2022-10-31T01:57:13;101351.22;;;14.52;100.00
9784;BME280;4931;44.874;-1.092;2022-10-31T02:01:59;101356.31;;;14.39;100.00
9784;BME280;4931;44.874;-1.092;2022-10-31T02:06:47;101343.56;;;14.43;100.00
9784;BME280;4931;44.874;-1.092;2022-10-31T02:11:38;101329.22;;;14.41;100.00
9784;BME280;4931;44.874;-1.092;2022-10-31T02:16:23;101321.84;;;14.37;100.00
9784;BME280;4931;44.874;-1.092;2022-10-31T02:21:15;101324.66;;;14.32;100.00
9784;BME280;4931;44.874;-1.092;2022-10-31T02:31:33;101313.84;;;14.35;100.00
9784;BME280;4931;44.874;-1.092;2022-10-31T02:36:24;101317.72;;;14.34;100.00
9784;BME280;4931;44.874;-1.092;2022-10-31T02:41:19;101308.09;;;14.32;100.00
9784;BME280;4931;44.874;-1.092;2022-10-31T02:46:11;101295.06;;;14.37;100.00
9784;BME280;4931;44.874;-1.092;2022-10-31T02:51:03;101281.97;;;14.24;100.00
9784;BME280;4931;44.874;-1.092;2022-10-31T02:55:58;101280.00;;;14.24;100.00
9784;BME280;4931;44.874;-1.092;2022-10-31T03:00:52;101280.94;;;14.15;100.00
9784;BME280;4931;44.874;-1.092;2022-10-31T03:05:52;101283.16;;;14.13;100.00
9784;BME280;4931;44.874;-1.092;2022-10-31T03:10:45;101274.59;;;14.14;100.00
9784;BME280;4931;44.874;-1.092;2022-10-31T03:15:33;101265.00;;;14.06;100.00
9784;BME280;4931;44.874;-1.092;2022-10-31T03:20:24;101267.47;;;13.78;100.00
9784;BME280;4931;44.874;-1.092;2022-10-31T03:25:13;101259.06;;;13.65;100.00
9784;BME280;4931;44.874;-1.092;2022-10-31T03:30:04;101255.38;;;13.74;100.00
9784;BME280;4931;44.874;-1.092;2022-10-31T03:34:51;101255.94;;;13.76;100.00
9784;BME280;4931;44.874;-1.092;2022-10-31T03:39:40;101245.28;;;13.65;100.00
9784;BME280;4931;44.874;-1.092;2022-10-31T03:44:27;101237.28;;;13.63;100.00
9784;BME280;4931;44.874;-1.092;2022-10-31T03:49:17;101219.28;;;13.41;100.00
9784;BME280;4931;44.874;-1.092;2022-10-31T03:54:06;101218.69;;;13.44;100.00
9784;BME280;4931;44.874;-1.092;2022-10-31T03:58:58;101221.44;;;13.44;100.00
9784;BME280;4931;44.874;-1.092;2022-10-31T04:03:45;101227.50;;;13.47;100.00
9784;BME280;4931;44.874;-1.092;2022-10-31T04:08:38;101232.69;;;13.53;100.00
9784;BME280;4931;44.874;-1.092;2022-10-31T04:13:27;101238.53;;;13.47;100.00
9784;BME280;4931;44.874;-1.092;2022-10-31T04:18:14;101229.25;;;13.37;100.00
9784;BME280;4931;44.874;-1.092;2022-10-31T04:22:59;101213.00;;;13.31;100.00
9784;BME280;4931;44.874;-1.092;2022-10-31T04:27:47;101210.28;;;13.25;100.00
9784;BME280;4931;44.874;-1.092;2022-10-31T04:32:32;101209.00;;;13.12;100.00
9784;BME280;4931;44.874;-1.092;2022-10-31T04:37:18;101203.94;;;13.25;100.00
9784;BME280;4931;44.874;-1.092;2022-10-31T04:42:03;101198.16;;;13.26;100.00
9784;BME280;4931;44.874;-1.092;2022-10-31T04:46:51;101190.50;;;13.18;100.00
9784;BME280;4931;44.874;-1.092;2022-10-31T04:51:36;101183.00;;;13.29;100.00
9784;BME280;4931;44.874;-1.092;2022-10-31T04:56:21;101176.94;;;13.27;100.00
9784;BME280;4931;44.874;-1.092;2022-10-31T05:01:06;101179.06;;;13.35;100.00
9784;BME280;4931;44.874;-1.092;2022-10-31T05:05:54;101184.63;;;13.30;100.00
9784;BME280;4931;44.874;-1.092;2022-10-31T05:10:39;101184.56;;;13.40;100.00
9784;BME280;4931;44.874;-1.092;2022-10-31T05:15:26;101180.13;;;13.44;100.00
9784;BME280;4931;44.874;-1.092;2022-10-31T05:20:13;101149.28;;;13.42;100.00
9784;BME280;4931;44.874;-1.092;2022-10-31T05:25:01;101151.03;;;13.28;100.00
9784;BME280;4931;44.874;-1.092;2022-10-31T05:29:46;101148.75;;;13.35;100.00
9784;BME280;4931;44.874;-1.092;2022-10-31T05:34:31;101145.47;;;13.38;100.00
9784;BME280;4931;44.874;-1.092;2022-10-31T05:39:17;101145.53;;;13.28;100.00
9784;BME280;4931;44.874;-1.092;2022-10-31T05:44:05;101129.50;;;13.30;100.00
9784;BME280;4931;44.874;-1.092;2022-10-31T05:48:50;101127.81;;;13.39;100.00
9784;BME280;4931;44.874;-1.092;2022-10-31T05:53:41;101116.28;;;13.37;100.00
9784;BME280;4931;44.874;-1.092;2022-10-31T05:58:26;101117.88;;;13.43;100.00
9784;BME280;4931;44.874;-1.092;2022-10-31T06:03:13;101108.25;;;13.41;100.00
9784;BME280;4931;44.874;-1.092;2022-10-31T06:07:59;101090.63;;;13.37;100.00
9784;BME280;4931;44.874;-1.092;2022-10-31T06:12:45;101092.63;;;13.26;100.00
9784;BME280;4931;44.874;-1.092;2022-10-31T06:17:30;101095.06;;;13.33;100.00
9784;BME280;4931;44.874;-1.092;2022-10-31T06:22:17;101090.38;;;13.33;100.00
9784;BME280;4931;44.874;-1.092;2022-10-31T06:27:03;101081.50;;;13.41;100.00
9784;BME280;4931;44.874;-1.092;2022-10-31T06:31:51;101087.69;;;13.28;100.00
9784;BME280;4931;44.874;-1.092;2022-10-31T06:36:36;101081.66;;;13.21;100.00
9784;BME280;4931;44.874;-1.092;2022-10-31T06:41:24;101080.84;;;13.20;100.00
9784;BME280;4931;44.874;-1.092;2022-10-31T06:46:09;101082.81;;;13.20;100.00
9784;BME280;4931;44.874;-1.092;2022-10-31T06:50:57;101078.41;;;13.19;100.00
9784;BME280;4931;44.874;-1.092;2022-10-31T06:55:42;101074.25;;;13.21;100.00
9784;BME280;4931;44.874;-1.092;2022-10-31T07:00:31;101064.56;;;13.24;100.00
9784;BME280;4931;44.874;-1.092;2022-10-31T07:05:16;101067.13;;;13.15;100.00
9784;BME280;4931;44.874;-1.092;2022-10-31T07:10:02;101071.31;;;13.07;100.00
9784;BME280;4931;44.874;-1.092;2022-10-31T07:14:48;101071.88;;;13.09;100.00
9784;BME280;4931;44.874;-1.092;2022-10-31T07:19:35;101081.75;;;13.10;100.00
9784;BME280;4931;44.874;-1.092;2022-10-31T07:24:20;101088.44;;;13.04;100.00
9784;BME280;4931;44.874;-1.092;2022-10-31T07:29:06;101093.88;;;13.15;100.00
9784;BME280;4931;44.874;-1.092;2022-10-31T07:33:51;101104.75;;;13.25;100.00
9784;BME280;4931;44.874;-1.092;2022-10-31T07:38:39;101100.59;;;13.27;100.00
9784;BME280;4931;44.874;-1.092;2022-10-31T07:43:24;101099.03;;;13.51;100.00
9784;BME280;4931;44.874;-1.092;2022-10-31T07:48:09;101101.16;;;13.59;100.00
9784;BME280;4931;44.874;-1.092;2022-10-31T07:53:01;101096.69;;;13.63;100.00
9784;BME280;4931;44.874;-1.092;2022-10-31T07:57:58;101099.34;;;13.73;100.00
9784;BME280;4931;44.874;-1.092;2022-10-31T08:02:44;101093.84;;;13.73;100.00
9784;BME280;4931;44.874;-1.092;2022-10-31T08:07:29;101088.81;;;13.81;100.00
9784;BME280;4931;44.874;-1.092;2022-10-31T08:12:14;101091.91;;;13.98;100.00
9784;BME280;4931;44.874;-1.092;2022-10-31T08:17:02;101099.00;;;14.04;100.00
9784;BME280;4931;44.874;-1.092;2022-10-31T08:21:50;101085.06;;;14.15;100.00
9784;BME280;4931;44.874;-1.092;2022-10-31T08:26:37;101065.34;;;14.02;100.00
9784;BME280;4931;44.874;-1.092;2022-10-31T08:31:22;101071.94;;;14.06;100.00
9784;BME280;4931;44.874;-1.092;2022-10-31T08:36:17;101073.97;;;14.20;100.00
9784;BME280;4931;44.874;-1.092;2022-10-31T08:41:02;101069.81;;;14.41;100.00
9784;BME280;4931;44.874;-1.092;2022-10-31T08:45:48;101055.16;;;14.60;100.00
9784;BME280;4931;44.874;-1.092;2022-10-31T08:50:36;101037.75;;;14.65;100.00
9784;BME280;4931;44.874;-1.092;2022-10-31T08:55:24;101041.31;;;14.65;100.00
9784;BME280;4931;44.874;-1.092;2022-10-31T09:00:10;101043.50;;;14.68;100.00
9784;BME280;4931;44.874;-1.092;2022-10-31T09:04:56;101034.59;;;14.71;100.00
9784;BME280;4931;44.874;-1.092;2022-10-31T09:09:41;101029.94;;;14.86;100.00
9784;BME280;4931;44.874;-1.092;2022-10-31T09:14:29;101016.03;;;14.91;100.00
9784;BME280;4931;44.874;-1.092;2022-10-31T09:19:14;101013.59;;;14.89;100.00
9784;BME280;4931;44.874;-1.092;2022-10-31T09:23:59;101017.69;;;14.92;100.00
9784;BME280;4931;44.874;-1.092;2022-10-31T09:28:44;101015.25;;;15.04;100.00
9784;BME280;4931;44.874;-1.092;2022-10-31T09:33:32;101007.50;;;15.06;100.00
9784;BME280;4931;44.874;-1.092;2022-10-31T09:38:18;101009.09;;;15.07;100.00
9784;BME280;4931;44.874;-1.092;2022-10-31T09:43:13;100999.59;;;15.14;100.00
9784;BME280;4931;44.874;-1.092;2022-10-31T09:48:09;100994.72;;;15.38;100.00
9784;BME280;4931;44.874;-1.092;2022-10-31T09:53:07;100999.13;;;15.39;100.00
9784;BME280;4931;44.874;-1.092;2022-10-31T09:57:54;100993.50;;;15.44;100.00
9784;BME280;4931;44.874;-1.092;2022-10-31T10:02:43;101001.97;;;15.62;100.00
9784;BME280;4931;44.874;-1.092;2022-10-31T10:07:41;101003.72;;;15.86;100.00
9784;BME280;4931;44.874;-1.092;2022-10-31T10:12:45;101002.88;;;15.99;100.00
9784;BME280;4931;44.874;-1.092;2022-10-31T10:17:35;101011.69;;;16.01;100.00
9784;BME280;4931;44.874;-1.092;2022-10-31T10:22:28;100996.75;;;16.02;100.00
9784;BME280;4931;44.874;-1.092;2022-10-31T10:27:21;100985.69;;;16.02;100.00
9784;BME280;4931;44.874;-1.092;2022-10-31T10:32:17;100984.56;;;15.89;100.00
9784;BME280;4931;44.874;-1.092;2022-10-31T10:37:19;100963.47;;;15.93;100.00
9784;BME280;4931;44.874;-1.092;2022-10-31T10:42:11;100964.97;;;16.00;100.00
9784;BME280;4931;44.874;-1.092;2022-10-31T10:47:12;100947.66;;;15.94;100.00
9784;BME280;4931;44.874;-1.092;2022-10-31T10:52:20;100946.63;;;16.04;100.00
9784;BME280;4931;44.874;-1.092;2022-10-31T10:57:41;100934.13;;;16.06;100.00
9784;BME280;4931;44.874;-1.092;2022-10-31T11:02:32;100912.78;;;16.07;100.00
9784;BME280;4931;44.874;-1.092;2022-10-31T11:07:18;100905.94;;;16.27;100.00
9784;BME280;4931;44.874;-1.092;2022-10-31T11:12:08;100908.00;;;16.44;100.00
9784;BME280;4931;44.874;-1.092;2022-10-31T11:17:06;100902.41;;;16.35;100.00
9784;BME280;4931;44.874;-1.092;2022-10-31T11:22:05;100901.13;;;16.41;100.00
9784;BME280;4931;44.874;-1.092;2022-10-31T11:26:51;100884.91;;;16.49;100.00
9784;BME280;4931;44.874;-1.092;2022-10-31T11:31:37;100872.72;;;16.50;100.00
9784;BME280;4931;44.874;-1.092;2022-10-31T11:36:23;100868.94;;;16.46;100.00
9784;BME280;4931;44.874;-1.092;2022-10-31T11:41:15;100865.53;;;16.49;100.00
9784;BME280;4931;44.874;-1.092;2022-10-31T11:46:08;100861.63;;;16.50;100.00
9784;BME280;4931;44.874;-1.092;2022-10-31T11:50:56;100849.91;;;16.53;100.00
9784;BME280;4931;44.874;-1.092;2022-10-31T11:55:41;100839.16;;;16.51;100.00
9784;BME280;4931;44.874;-1.092;2022-10-31T12:00:31;100832.03;;;16.59;100.00
9784;BME280;4931;44.874;-1.092;2022-10-31T12:05:19;100818.81;;;16.56;100.00
9784;BME280;4931;44.874;-1.092;2022-10-31T12:10:13;100813.25;;;16.56;100.00
9784;BME280;4931;44.874;-1.092;2022-10-31T12:15:11;100802.38;;;16.59;100.00
9784;BME280;4931;44.874;-1.092;2022-10-31T12:20:12;100787.72;;;16.59;100.00
9784;BME280;4931;44.874;-1.092;2022-10-31T12:25:18;100783.38;;;16.75;100.00
9784;BME280;4931;44.874;-1.092;2022-10-31T12:30:19;100765.44;;;16.64;100.00
9784;BME280;4931;44.874;-1.092;2022-10-31T12:40:37;100754.19;;;16.69;100.00
9784;BME280;4931;44.874;-1.092;2022-10-31T12:45:36;100747.88;;;16.77;100.00
9784;BME280;4931;44.874;-1.092;2022-10-31T12:50:31;100748.66;;;16.78;100.00
9784;BME280;4931;44.874;-1.092;2022-10-31T12:55:44;100770.25;;;16.99;100.00
9784;BME280;4931;44.874;-1.092;2022-10-31T13:00:34;100766.84;;;17.11;100.00
9784;BME280;4931;44.874;-1.092;2022-10-31T13:05:29;100772.56;;;17.14;100.00
9784;BME280;4931;44.874;-1.092;2022-10-31T13:10:19;100767.53;;;17.25;100.00
9784;BME280;4931;44.874;-1.092;2022-10-31T13:15:14;100758.56;;;17.19;100.00
9784;BME280;4931;44.874;-1.092;2022-10-31T13:20:18;100743.72;;;17.06;100.00
9784;BME280;4931;44.874;-1.092;2022-10-31T13:25:11;100744.19;;;17.00;100.00
9784;BME280;4931;44.874;-1.092;2022-10-31T13:30:02;100742.06;;;17.05;100.00
9784;BME280;4931;44.874;-1.092;2022-10-31T13:34:52;100736.88;;;17.13;100.00
9784;BME280;4931;44.874;-1.092;2022-10-31T13:39:46;100733.28;;;17.21;100.00
9784;BME280;4931;44.874;-1.092;2022-10-31T13:44:36;100728.06;;;17.28;100.00
9784;BME280;4931;44.874;-1.092;2022-10-31T13:54:32;100721.38;;;17.38;100.00
9784;BME280;4931;44.874;-1.092;2022-10-31T13:59:19;100748.75;;;17.74;100.00
9784;BME280;4931;44.874;-1.092;2022-10-31T14:04:13;100741.41;;;17.79;100.00
9784;BME280;4931;44.874;-1.092;2022-10-31T14:09:18;100731.28;;;17.74;100.00
9784;BME280;4931;44.874;-1.092;2022-10-31T14:14:10;100727.06;;;17.59;100.00
9784;BME280;4931;44.874;-1.092;2022-10-31T14:18:59;100729.50;;;17.61;100.00
9784;BME280;4931;44.874;-1.092;2022-10-31T14:23:46;100742.25;;;17.70;100.00
9784;BME280;4931;44.874;-1.092;2022-10-31T14:28:35;100735.84;;;17.79;100.00
9784;BME280;4931;44.874;-1.092;2022-10-31T14:33:25;100737.78;;;17.87;100.00
9784;BME280;4931;44.874;-1.092;2022-10-31T14:38:32;100749.25;;;17.94;100.00
9784;BME280;4931;44.874;-1.092;2022-10-31T14:53:46;100759.00;;;17.83;100.00
9784;BME280;4931;44.874;-1.092;2022-10-31T14:58:38;100758.38;;;17.68;100.00
9784;BME280;4931;44.874;-1.092;2022-10-31T15:03:26;100761.97;;;17.78;100.00
9784;BME280;4931;44.874;-1.092;2022-10-31T15:08:25;100766.66;;;17.86;100.00
9784;BME280;4931;44.874;-1.092;2022-10-31T15:13:19;100752.97;;;17.81;100.00
9784;BME280;4931;44.874;-1.092;2022-10-31T15:18:05;100749.88;;;17.73;100.00
9784;BME280;4931;44.874;-1.092;2022-10-31T15:22:50;100757.25;;;17.61;100.00
9784;BME280;4931;44.874;-1.092;2022-10-31T15:27:36;100758.03;;;17.79;100.00
9784;BME280;4931;44.874;-1.092;2022-10-31T15:32:28;100766.50;;;17.91;100.00
9784;BME280;4931;44.874;-1.092;2022-10-31T15:37:15;100771.09;;;17.96;100.00
9784;BME280;4931;44.874;-1.092;2022-10-31T15:42:00;100789.06;;;17.98;100.00
9784;BME280;4931;44.874;-1.092;2022-10-31T15:46:52;100779.59;;;17.99;100.00
9784;BME280;4931;44.874;-1.092;2022-10-31T15:51:40;100796.25;;;17.99;100.00
9784;BME280;4931;44.874;-1.092;2022-10-31T15:56:32;100797.56;;;17.93;100.00
9784;BME280;4931;44.874;-1.092;2022-10-31T16:01:22;100809.94;;;17.87;100.00
9784;BME280;4931;44.874;-1.092;2022-10-31T16:06:19;100820.06;;;17.83;100.00
9784;BME280;4931;44.874;-1.092;2022-10-31T16:11:23;100829.69;;;17.85;100.00
9784;BME280;4931;44.874;-1.092;2022-10-31T16:16:12;100834.44;;;17.85;100.00
9784;BME280;4931;44.874;-1.092;2022-10-31T16:21:24;100840.63;;;17.90;100.00
9784;BME280;4931;44.874;-1.092;2022-10-31T16:26:13;100853.53;;;17.95;100.00
9784;BME280;4931;44.874;-1.092;2022-10-31T16:31:13;100852.22;;;17.84;100.00
9784;BME280;4931;44.874;-1.092;2022-10-31T16:36:00;100864.44;;;17.91;100.00
9784;BME280;4931;44.874;-1.092;2022-10-31T16:41:07;100866.56;;;17.86;100.00
9784;BME280;4931;44.874;-1.092;2022-10-31T16:45:52;100877.66;;;17.86;100.00
9784;BME280;4931;44.874;-1.092;2022-10-31T16:50:41;100886.97;;;17.90;100.00
9784;BME280;4931;44.874;-1.092;2022-10-31T16:55:26;100903.44;;;17.69;100.00
9784;BME280;4931;44.874;-1.092;2022-10-31T17:00:17;100913.72;;;17.86;100.00
9784;BME280;4931;44.874;-1.092;2022-10-31T17:05:03;100927.44;;;17.73;100.00
9784;BME280;4931;44.874;-1.092;2022-10-31T17:09:52;100943.97;;;17.96;100.00
9784;BME280;4931;44.874;-1.092;2022-10-31T17:14:37;100973.16;;;17.85;100.00
9784;BME280;4931;44.874;-1.092;2022-10-31T17:19:22;100987.19;;;17.80;100.00
9784;BME280;4931;44.874;-1.092;2022-10-31T17:24:10;101007.53;;;17.66;100.00
9784;BME280;4931;44.874;-1.092;2022-10-31T17:28:59;101034.59;;;17.61;100.00
9784;BME280;4931;44.874;-1.092;2022-10-31T17:33:44;101026.59;;;17.59;100.00
9784;BME280;4931;44.874;-1.092;2022-10-31T17:38:29;101035.06;;;17.54;100.00
9784;BME280;4931;44.874;-1.092;2022-10-31T17:43:14;101031.34;;;17.58;100.00
9784;BME280;4931;44.874;-1.092;2022-10-31T17:48:02;101038.81;;;17.49;100.00
9784;BME280;4931;44.874;-1.092;2022-10-31T17:52:48;101051.38;;;17.47;100.00
9784;BME280;4931;44.874;-1.092;2022-10-31T17:57:34;101070.19;;;17.58;100.00
9784;BME280;4931;44.874;-1.092;2022-10-31T18:02:19;101044.53;;;17.53;100.00
9784;BME280;4931;44.874;-1.092;2022-10-31T18:07:07;101073.00;;;17.36;100.00
9784;BME280;4931;44.874;-1.092;2022-10-31T18:11:53;101073.19;;;17.39;100.00
9784;BME280;4931;44.874;-1.092;2022-10-31T18:16:38;101081.50;;;17.39;100.00
9784;BME280;4931;44.874;-1.092;2022-10-31T18:21:23;101096.28;;;17.26;100.00
9784;BME280;4931;44.874;-1.092;2022-10-31T18:26:11;101098.19;;;17.48;100.00
9784;BME280;4931;44.874;-1.092;2022-10-31T18:30:57;101097.28;;;17.30;100.00
9784;BME280;4931;44.874;-1.092;2022-10-31T18:35:43;101103.69;;;17.39;100.00
9784;BME280;4931;44.874;-1.092;2022-10-31T18:40:28;101121.19;;;17.49;100.00
9784;BME280;4931;44.874;-1.092;2022-10-31T18:45:16;101141.41;;;17.18;100.00
9784;BME280;4931;44.874;-1.092;2022-10-31T18:50:21;101153.22;;;17.32;100.00
9784;BME280;4931;44.874;-1.092;2022-10-31T18:55:08;101174.16;;;17.16;100.00
9784;BME280;4931;44.874;-1.092;2022-10-31T18:59:53;101182.47;;;17.16;100.00
9784;BME280;4931;44.874;-1.092;2022-10-31T19:04:41;101186.88;;;16.94;100.00
9784;BME280;4931;44.874;-1.092;2022-10-31T19:09:26;101185.66;;;16.72;100.00
9784;BME280;4931;44.874;-1.092;2022-10-31T19:14:12;101214.47;;;16.71;100.00
9784;BME280;4931;44.874;-1.092;2022-10-31T19:18:58;101241.88;;;16.45;100.00
9784;BME280;4931;44.874;-1.092;2022-10-31T19:23:46;101259.63;;;16.30;100.00
9784;BME280;4931;44.874;-1.092;2022-10-31T19:28:33;101256.34;;;16.28;100.00
9784;BME280;4931;44.874;-1.092;2022-10-31T19:33:18;101275.19;;;16.12;100.00
9784;BME280;4931;44.874;-1.092;2022-10-31T19:38:03;101265.97;;;16.17;100.00
9784;BME280;4931;44.874;-1.092;2022-10-31T19:42:51;101270.00;;;15.91;100.00
9784;BME280;4931;44.874;-1.092;2022-10-31T19:47:36;101275.34;;;15.88;100.00
9784;BME280;4931;44.874;-1.092;2022-10-31T19:52:21;101295.22;;;15.90;100.00
9784;BME280;4931;44.874;-1.092;2022-10-31T19:57:06;101300.97;;;15.93;100.00
9784;BME280;4931;44.874;-1.092;2022-10-31T20:01:54;101326.69;;;15.94;100.00
9784;BME280;4931;44.874;-1.092;2022-10-31T20:06:40;101313.47;;;15.91;100.00
9784;BME280;4931;44.874;-1.092;2022-10-31T20:11:26;101317.19;;;16.00;100.00
9784;BME280;4931;44.874;-1.092;2022-10-31T20:16:13;101312.66;;;15.90;100.00
9784;BME280;4931;44.874;-1.092;2022-10-31T20:21:06;101318.38;;;15.94;100.00
9784;BME280;4931;44.874;-1.092;2022-10-31T20:25:51;101325.38;;;16.05;100.00
9784;BME280;4931;44.874;-1.092;2022-10-31T20:30:36;101313.88;;;15.98;100.00
9784;BME280;4931;44.874;-1.092;2022-10-31T20:35:21;101330.47;;;15.98;100.00
9784;BME280;4931;44.874;-1.092;2022-10-31T20:40:10;101326.00;;;16.02;100.00
9784;BME280;4931;44.874;-1.092;2022-10-31T20:44:55;101348.31;;;15.92;100.00
9784;BME280;4931;44.874;-1.092;2022-10-31T20:49:40;101354.72;;;15.87;100.00
9784;BME280;4931;44.874;-1.092;2022-10-31T20:54:25;101349.72;;;15.70;100.00
9784;BME280;4931;44.874;-1.092;2022-10-31T20:59:13;101368.50;;;15.73;100.00
9784;BME280;4931;44.874;-1.092;2022-10-31T21:04:01;101371.09;;;15.46;100.00
9784;BME280;4931;44.874;-1.092;2022-10-31T21:08:46;101405.66;;;15.43;100.00
9784;BME280;4931;44.874;-1.092;2022-10-31T21:13:34;101423.78;;;15.35;100.00
9784;BME280;4931;44.874;-1.092;2022-10-31T21:18:24;101427.72;;;15.29;100.00
9784;BME280;4931;44.874;-1.092;2022-10-31T21:23:11;101436.00;;;15.29;100.00
9784;BME280;4931;44.874;-1.092;2022-10-31T21:27:56;101453.34;;;15.10;100.00
9784;BME280;4931;44.874;-1.092;2022-10-31T21:32:42;101464.09;;;15.12;100.00
9784;BME280;4931;44.874;-1.092;2022-10-31T21:37:30;101468.59;;;15.08;100.00
9784;BME280;4931;44.874;-1.092;2022-10-31T21:42:15;101467.03;;;14.97;100.00
9784;BME280;4931;44.874;-1.092;2022-10-31T21:47:02;101474.50;;;14.96;100.00
9784;BME280;4931;44.874;-1.092;2022-10-31T21:51:47;101490.44;;;15.04;100.00
9784;BME280;4931;44.874;-1.092;2022-10-31T21:56:35;101500.94;;;15.02;100.00
9784;BME280;4931;44.874;-1.092;2022-10-31T22:01:23;101507.38;;;14.98;100.00
9784;BME280;4931;44.874;-1.092;2022-10-31T22:06:10;101511.38;;;15.10;100.00
9784;BME280;4931;44.874;-1.092;2022-10-31T22:10:55;101527.47;;;15.03;100.00
9784;BME280;4931;44.874;-1.092;2022-10-31T22:15:43;101537.00;;;15.16;100.00
9784;BME280;4931;44.874;-1.092;2022-10-31T22:20:28;101551.13;;;15.15;100.00
9784;BME280;4931;44.874;-1.092;2022-10-31T22:25:14;101560.53;;;15.14;100.00
9784;BME280;4931;44.874;-1.092;2022-10-31T22:29:59;101566.91;;;15.14;100.00
9784;BME280;4931;44.874;-1.092;2022-10-31T22:34:47;101569.13;;;15.12;100.00
9784;BME280;4931;44.874;-1.092;2022-10-31T22:39:32;101573.81;;;15.12;100.00
9784;BME280;4931;44.874;-1.092;2022-10-31T22:44:17;101585.44;;;15.08;100.00
9784;BME280;4931;44.874;-1.092;2022-10-31T22:49:05;101596.56;;;14.98;100.00
9784;BME280;4931;44.874;-1.092;2022-10-31T22:53:53;101592.78;;;14.89;100.00
9784;BME280;4931;44.874;-1.092;2022-10-31T22:58:39;101605.66;;;15.04;100.00
9784;BME280;4931;44.874;-1.092;2022-10-31T23:03:24;101610.44;;;14.93;100.00
9784;BME280;4931;44.874;-1.092;2022-10-31T23:08:10;101613.50;;;14.91;100.00
9784;BME280;4931;44.874;-1.092;2022-10-31T23:12:58;101618.16;;;14.96;100.00
9784;BME280;4931;44.874;-1.092;2022-10-31T23:17:56;101621.03;;;14.81;100.00
9784;BME280;4931;44.874;-1.092;2022-10-31T23:22:41;101636.06;;;14.64;100.00
9784;BME280;4931;44.874;-1.092;2022-10-31T23:27:27;101646.00;;;14.60;100.00
9784;BME280;4931;44.874;-1.092;2022-10-31T23:32:20;101645.50;;;14.53;100.00
9784;BME280;4931;44.874;-1.092;2022-10-31T23:37:06;101648.22;;;14.58;100.00
9784;BME280;4931;44.874;-1.092;2022-10-31T23:41:52;101646.16;;;14.29;100.00
9784;BME280;4931;44.874;-1.092;2022-10-31T23:46:37;101665.53;;;14.19;100.00
9784;BME280;4931;44.874;-1.092;2022-10-31T23:51:25;101665.50;;;14.29;100.00
9784;BME280;4931;44.874;-1.092;2022-10-31T23:56:10;101672.69;;;14.25;100.00
